sensor_id;sensor_type;location;lat;lon;timestamp;P1;durP1;ratioP1;P2;durP2;ratioP2
72611;SDS011;60655;52.182;4.474;2023-04-15T00:01:53;9.57;;;3.75;;
72611;SDS011;60655;52.182;4.474;2023-04-15T00:03:54;10.57;;;4.25;;
72611;SDS011;60655;52.182;4.474;2023-04-15T00:05:56;8.57;;;4.60;;
72611;SDS011;60655;52.182;4.474;2023-04-15T00:07:58;8.63;;;3.83;;
72611;SDS011;60655;52.182;4.474;2023-04-15T00:09:59;10.15;;;4.38;;
72611;SDS011;60655;52.182;4.474;2023-04-15T00:12:00;9.48;;;4.25;;
72611;SDS011;60655;52.182;4.474;2023-04-15T00:14:01;8.52;;;4.03;;
72611;SDS011;60655;52.182;4.474;2023-04-15T00:16:02;8.43;;;4.45;;
72611;SDS011;60655;52.182;4.474;2023-04-15T00:18:03;14.95;;;5.43;;
72611;SDS011;60655;52.182;4.474;2023-04-15T00:20:04;10.07;;;4.85;;
72611;SDS011;60655;52.182;4.474;2023-04-15T00:22:09;13.20;;;5.00;;
72611;SDS011;60655;52.182;4.474;2023-04-15T00:24:10;15.73;;;4.82;;
72611;SDS011;60655;52.182;4.474;2023-04-15T00:26:11;11.25;;;5.30;;
72611;SDS011;60655;52.182;4.474;2023-04-15T00:28:12;10.73;;;4.60;;
72611;SDS011;60655;52.182;4.474;2023-04-15T00:30:13;8.50;;;4.32;;
72611;SDS011;60655;52.182;4.474;2023-04-15T00:32:14;11.82;;;4.68;;
72611;SDS011;60655;52.182;4.474;2023-04-15T00:34:15;7.85;;;4.70;;
72611;SDS011;60655;52.182;4.474;2023-04-15T00:36:16;8.95;;;4.95;;
72611;SDS011;60655;52.182;4.474;2023-04-15T00:38:17;11.50;;;5.10;;
72611;SDS011;60655;52.182;4.474;2023-04-15T00:40:18;10.32;;;4.88;;
72611;SDS011;60655;52.182;4.474;2023-04-15T00:42:21;8.88;;;4.60;;
72611;SDS011;60655;52.182;4.474;2023-04-15T00:44:23;12.50;;;4.65;;
72611;SDS011;60655;52.182;4.474;2023-04-15T00:46:24;10.82;;;5.65;;
72611;SDS011;60655;52.182;4.474;2023-04-15T00:48:28;8.63;;;4.65;;
72611;SDS011;60655;52.182;4.474;2023-04-15T00:50:29;12.52;;;5.22;;
72611;SDS011;60655;52.182;4.474;2023-04-15T00:52:30;14.65;;;5.50;;
72611;SDS011;60655;52.182;4.474;2023-04-15T00:54:32;8.70;;;4.25;;
72611;SDS011;60655;52.182;4.474;2023-04-15T00:56:34;12.20;;;5.38;;
72611;SDS011;60655;52.182;4.474;2023-04-15T00:58:36;13.60;;;5.38;;
72611;SDS011;60655;52.182;4.474;2023-04-15T01:00:37;11.60;;;4.35;;
72611;SDS011;60655;52.182;4.474;2023-04-15T01:02:38;9.70;;;4.95;;
72611;SDS011;60655;52.182;4.474;2023-04-15T01:04:39;11.02;;;4.80;;
72611;SDS011;60655;52.182;4.474;2023-04-15T01:06:40;12.45;;;4.95;;
72611;SDS011;60655;52.182;4.474;2023-04-15T01:08:43;9.15;;;4.30;;
72611;SDS011;60655;52.182;4.474;2023-04-15T01:10:45;14.15;;;4.82;;
72611;SDS011;60655;52.182;4.474;2023-04-15T01:12:46;10.18;;;5.00;;
72611;SDS011;60655;52.182;4.474;2023-04-15T01:14:47;13.15;;;5.55;;
72611;SDS011;60655;52.182;4.474;2023-04-15T01:16:48;10.98;;;4.40;;
72611;SDS011;60655;52.182;4.474;2023-04-15T01:18:50;9.20;;;4.88;;
72611;SDS011;60655;52.182;4.474;2023-04-15T01:20:51;12.10;;;4.82;;
72611;SDS011;60655;52.182;4.474;2023-04-15T01:22:53;11.65;;;4.82;;
72611;SDS011;60655;52.182;4.474;2023-04-15T01:24:57;9.50;;;4.70;;
72611;SDS011;60655;52.182;4.474;2023-04-15T01:27:11;7.85;;;4.30;;
72611;SDS011;60655;52.182;4.474;2023-04-15T01:29:12;14.20;;;4.97;;
72611;SDS011;60655;52.182;4.474;2023-04-15T01:31:13;10.55;;;4.40;;
72611;SDS011;60655;52.182;4.474;2023-04-15T01:33:14;11.98;;;5.07;;
72611;SDS011;60655;52.182;4.474;2023-04-15T01:35:15;10.85;;;4.97;;
72611;SDS011;60655;52.182;4.474;2023-04-15T01:37:17;11.25;;;4.38;;
72611;SDS011;60655;52.182;4.474;2023-04-15T01:39:18;9.57;;;5.10;;
72611;SDS011;60655;52.182;4.474;2023-04-15T01:41:27;12.02;;;4.50;;
72611;SDS011;60655;52.182;4.474;2023-04-15T01:43:28;12.75;;;4.65;;
72611;SDS011;60655;52.182;4.474;2023-04-15T01:45:29;11.30;;;5.30;;
72611;SDS011;60655;52.182;4.474;2023-04-15T01:47:30;11.52;;;5.10;;
72611;SDS011;60655;52.182;4.474;2023-04-15T01:49:31;11.85;;;4.90;;
72611;SDS011;60655;52.182;4.474;2023-04-15T01:51:32;8.35;;;4.43;;
72611;SDS011;60655;52.182;4.474;2023-04-15T01:53:33;10.60;;;5.43;;
72611;SDS011;60655;52.182;4.474;2023-04-15T01:55:35;9.80;;;4.53;;
72611;SDS011;60655;52.182;4.474;2023-04-15T01:57:36;12.02;;;5.53;;
72611;SDS011;60655;52.182;4.474;2023-04-15T01:59:37;12.40;;;5.05;;
72611;SDS011;60655;52.182;4.474;2023-04-15T02:01:38;10.70;;;4.90;;
72611;SDS011;60655;52.182;4.474;2023-04-15T02:03:40;12.00;;;4.97;;
72611;SDS011;60655;52.182;4.474;2023-04-15T02:05:41;9.25;;;4.93;;
72611;SDS011;60655;52.182;4.474;2023-04-15T02:07:43;9.40;;;4.13;;
72611;SDS011;60655;52.182;4.474;2023-04-15T02:09:45;11.50;;;5.40;;
72611;SDS011;60655;52.182;4.474;2023-04-15T02:11:45;9.57;;;4.43;;
72611;SDS011;60655;52.182;4.474;2023-04-15T02:13:47;9.20;;;4.60;;
72611;SDS011;60655;52.182;4.474;2023-04-15T02:15:48;12.43;;;5.47;;
72611;SDS011;60655;52.182;4.474;2023-04-15T02:17:50;9.82;;;4.80;;
72611;SDS011;60655;52.182;4.474;2023-04-15T02:19:52;10.50;;;4.93;;
72611;SDS011;60655;52.182;4.474;2023-04-15T02:21:52;9.55;;;4.47;;
72611;SDS011;60655;52.182;4.474;2023-04-15T02:23:53;13.35;;;5.10;;
72611;SDS011;60655;52.182;4.474;2023-04-15T02:25:55;9.98;;;5.07;;
72611;SDS011;60655;52.182;4.474;2023-04-15T02:27:56;11.48;;;5.00;;
72611;SDS011;60655;52.182;4.474;2023-04-15T02:29:57;14.15;;;4.55;;
72611;SDS011;60655;52.182;4.474;2023-04-15T02:31:58;13.65;;;5.10;;
72611;SDS011;60655;52.182;4.474;2023-04-15T02:33:59;8.75;;;4.65;;
72611;SDS011;60655;52.182;4.474;2023-04-15T02:36:02;12.68;;;5.25;;
72611;SDS011;60655;52.182;4.474;2023-04-15T02:38:03;8.15;;;4.63;;
72611;SDS011;60655;52.182;4.474;2023-04-15T02:40:08;10.98;;;5.40;;
72611;SDS011;60655;52.182;4.474;2023-04-15T02:42:11;11.23;;;5.32;;
72611;SDS011;60655;52.182;4.474;2023-04-15T02:44:12;9.63;;;4.95;;
72611;SDS011;60655;52.182;4.474;2023-04-15T02:46:13;8.38;;;4.50;;
72611;SDS011;60655;52.182;4.474;2023-04-15T02:48:14;9.90;;;4.15;;
72611;SDS011;60655;52.182;4.474;2023-04-15T02:50:18;12.18;;;4.93;;
72611;SDS011;60655;52.182;4.474;2023-04-15T02:52:19;11.75;;;5.10;;
72611;SDS011;60655;52.182;4.474;2023-04-15T02:54:21;9.65;;;4.63;;
72611;SDS011;60655;52.182;4.474;2023-04-15T02:56:25;8.73;;;4.63;;
72611;SDS011;60655;52.182;4.474;2023-04-15T02:58:27;9.45;;;4.82;;
72611;SDS011;60655;52.182;4.474;2023-04-15T03:00:28;10.95;;;5.20;;
72611;SDS011;60655;52.182;4.474;2023-04-15T03:02:35;9.70;;;4.75;;
72611;SDS011;60655;52.182;4.474;2023-04-15T03:04:36;10.48;;;4.45;;
72611;SDS011;60655;52.182;4.474;2023-04-15T03:06:37;12.18;;;4.35;;
72611;SDS011;60655;52.182;4.474;2023-04-15T03:08:38;9.95;;;4.88;;
72611;SDS011;60655;52.182;4.474;2023-04-15T03:10:39;9.27;;;4.20;;
72611;SDS011;60655;52.182;4.474;2023-04-15T03:12:40;8.63;;;4.38;;
72611;SDS011;60655;52.182;4.474;2023-04-15T03:14:41;11.27;;;4.90;;
72611;SDS011;60655;52.182;4.474;2023-04-15T03:16:42;11.48;;;4.32;;
72611;SDS011;60655;52.182;4.474;2023-04-15T03:18:43;12.95;;;4.60;;
72611;SDS011;60655;52.182;4.474;2023-04-15T03:20:44;10.38;;;4.40;;
72611;SDS011;60655;52.182;4.474;2023-04-15T03:22:45;7.90;;;4.25;;
72611;SDS011;60655;52.182;4.474;2023-04-15T03:24:46;7.88;;;3.90;;
72611;SDS011;60655;52.182;4.474;2023-04-15T03:26:47;10.15;;;4.30;;
72611;SDS011;60655;52.182;4.474;2023-04-15T03:28:48;9.38;;;4.53;;
72611;SDS011;60655;52.182;4.474;2023-04-15T03:30:49;9.50;;;4.40;;
72611;SDS011;60655;52.182;4.474;2023-04-15T03:32:51;9.02;;;3.97;;
72611;SDS011;60655;52.182;4.474;2023-04-15T03:34:52;8.68;;;3.42;;
72611;SDS011;60655;52.182;4.474;2023-04-15T03:36:53;8.23;;;4.50;;
72611;SDS011;60655;52.182;4.474;2023-04-15T03:38:54;9.65;;;3.90;;
72611;SDS011;60655;52.182;4.474;2023-04-15T03:40:56;9.45;;;4.03;;
72611;SDS011;60655;52.182;4.474;2023-04-15T03:42:57;9.32;;;4.13;;
72611;SDS011;60655;52.182;4.474;2023-04-15T03:44:58;7.60;;;4.18;;
72611;SDS011;60655;52.182;4.474;2023-04-15T03:46:59;10.85;;;4.80;;
72611;SDS011;60655;52.182;4.474;2023-04-15T03:49:00;12.05;;;4.70;;
72611;SDS011;60655;52.182;4.474;2023-04-15T03:51:01;9.77;;;4.57;;
72611;SDS011;60655;52.182;4.474;2023-04-15T03:53:03;8.88;;;4.10;;
72611;SDS011;60655;52.182;4.474;2023-04-15T03:55:04;9.65;;;4.13;;
72611;SDS011;60655;52.182;4.474;2023-04-15T03:57:05;12.40;;;4.88;;
72611;SDS011;60655;52.182;4.474;2023-04-15T03:59:06;10.80;;;4.70;;
72611;SDS011;60655;52.182;4.474;2023-04-15T04:01:07;8.75;;;4.50;;
72611;SDS011;60655;52.182;4.474;2023-04-15T04:05:08;10.98;;;4.20;;
72611;SDS011;60655;52.182;4.474;2023-04-15T04:07:16;9.00;;;4.05;;
72611;SDS011;60655;52.182;4.474;2023-04-15T04:09:17;10.15;;;4.28;;
72611;SDS011;60655;52.182;4.474;2023-04-15T04:11:18;11.35;;;4.03;;
72611;SDS011;60655;52.182;4.474;2023-04-15T04:13:20;11.45;;;5.03;;
72611;SDS011;60655;52.182;4.474;2023-04-15T04:15:21;11.30;;;4.70;;
72611;SDS011;60655;52.182;4.474;2023-04-15T04:17:22;10.40;;;4.72;;
72611;SDS011;60655;52.182;4.474;2023-04-15T04:19:23;13.55;;;5.13;;
72611;SDS011;60655;52.182;4.474;2023-04-15T04:21:24;12.73;;;4.78;;
72611;SDS011;60655;52.182;4.474;2023-04-15T04:23:26;10.63;;;5.07;;
72611;SDS011;60655;52.182;4.474;2023-04-15T04:25:27;11.75;;;4.53;;
72611;SDS011;60655;52.182;4.474;2023-04-15T04:27:28;8.82;;;4.30;;
72611;SDS011;60655;52.182;4.474;2023-04-15T04:29:29;9.75;;;4.15;;
72611;SDS011;60655;52.182;4.474;2023-04-15T04:31:30;9.52;;;4.20;;
72611;SDS011;60655;52.182;4.474;2023-04-15T04:33:32;9.52;;;4.50;;
72611;SDS011;60655;52.182;4.474;2023-04-15T04:35:33;9.10;;;4.18;;
72611;SDS011;60655;52.182;4.474;2023-04-15T04:37:37;8.45;;;4.70;;
72611;SDS011;60655;52.182;4.474;2023-04-15T04:39:38;11.90;;;4.38;;
72611;SDS011;60655;52.182;4.474;2023-04-15T04:41:39;12.15;;;4.82;;
72611;SDS011;60655;52.182;4.474;2023-04-15T04:43:40;9.75;;;4.10;;
72611;SDS011;60655;52.182;4.474;2023-04-15T04:45:41;10.45;;;4.55;;
72611;SDS011;60655;52.182;4.474;2023-04-15T04:47:42;12.40;;;5.22;;
72611;SDS011;60655;52.182;4.474;2023-04-15T04:49:43;11.35;;;5.18;;
72611;SDS011;60655;52.182;4.474;2023-04-15T04:51:44;9.40;;;4.15;;
72611;SDS011;60655;52.182;4.474;2023-04-15T04:53:46;9.85;;;4.85;;
72611;SDS011;60655;52.182;4.474;2023-04-15T04:55:48;11.82;;;5.22;;
72611;SDS011;60655;52.182;4.474;2023-04-15T04:57:49;9.82;;;4.30;;
72611;SDS011;60655;52.182;4.474;2023-04-15T04:59:51;9.93;;;4.50;;
72611;SDS011;60655;52.182;4.474;2023-04-15T05:01:52;12.35;;;4.82;;
72611;SDS011;60655;52.182;4.474;2023-04-15T05:03:53;12.82;;;4.93;;
72611;SDS011;60655;52.182;4.474;2023-04-15T05:05:54;14.18;;;5.30;;
72611;SDS011;60655;52.182;4.474;2023-04-15T05:07:55;14.10;;;5.20;;
72611;SDS011;60655;52.182;4.474;2023-04-15T05:09:56;12.13;;;5.03;;
72611;SDS011;60655;52.182;4.474;2023-04-15T05:11:57;12.40;;;4.93;;
72611;SDS011;60655;52.182;4.474;2023-04-15T05:13:58;12.52;;;5.07;;
72611;SDS011;60655;52.182;4.474;2023-04-15T05:16:01;12.05;;;5.30;;
72611;SDS011;60655;52.182;4.474;2023-04-15T05:18:02;9.85;;;4.35;;
72611;SDS011;60655;52.182;4.474;2023-04-15T05:20:03;11.18;;;4.85;;
72611;SDS011;60655;52.182;4.474;2023-04-15T05:22:05;12.40;;;5.40;;
72611;SDS011;60655;52.182;4.474;2023-04-15T05:24:06;11.55;;;5.53;;
72611;SDS011;60655;52.182;4.474;2023-04-15T05:26:07;14.77;;;5.00;;
72611;SDS011;60655;52.182;4.474;2023-04-15T05:28:08;13.90;;;5.47;;
72611;SDS011;60655;52.182;4.474;2023-04-15T05:30:11;11.15;;;4.85;;
72611;SDS011;60655;52.182;4.474;2023-04-15T05:32:12;10.15;;;4.78;;
72611;SDS011;60655;52.182;4.474;2023-04-15T05:34:13;10.07;;;4.55;;
72611;SDS011;60655;52.182;4.474;2023-04-15T05:36:16;12.15;;;5.13;;
72611;SDS011;60655;52.182;4.474;2023-04-15T05:38:17;13.85;;;5.32;;
72611;SDS011;60655;52.182;4.474;2023-04-15T05:40:17;12.65;;;5.32;;
72611;SDS011;60655;52.182;4.474;2023-04-15T05:42:19;12.15;;;4.78;;
72611;SDS011;60655;52.182;4.474;2023-04-15T05:44:20;17.88;;;4.93;;
72611;SDS011;60655;52.182;4.474;2023-04-15T05:46:21;17.63;;;7.30;;
72611;SDS011;60655;52.182;4.474;2023-04-15T05:48:22;10.70;;;4.93;;
72611;SDS011;60655;52.182;4.474;2023-04-15T05:50:23;19.75;;;8.80;;
72611;SDS011;60655;52.182;4.474;2023-04-15T05:52:24;11.52;;;5.60;;
72611;SDS011;60655;52.182;4.474;2023-04-15T05:54:25;13.32;;;5.35;;
72611;SDS011;60655;52.182;4.474;2023-04-15T05:56:27;12.35;;;5.35;;
72611;SDS011;60655;52.182;4.474;2023-04-15T05:58:28;11.45;;;5.35;;
72611;SDS011;60655;52.182;4.474;2023-04-15T06:00:29;11.40;;;5.47;;
72611;SDS011;60655;52.182;4.474;2023-04-15T06:02:30;12.55;;;5.43;;
72611;SDS011;60655;52.182;4.474;2023-04-15T06:04:32;10.30;;;5.20;;
72611;SDS011;60655;52.182;4.474;2023-04-15T06:06:33;11.55;;;5.30;;
72611;SDS011;60655;52.182;4.474;2023-04-15T06:08:34;10.68;;;5.15;;
72611;SDS011;60655;52.182;4.474;2023-04-15T06:10:35;11.60;;;5.63;;
72611;SDS011;60655;52.182;4.474;2023-04-15T06:12:36;13.65;;;6.20;;
72611;SDS011;60655;52.182;4.474;2023-04-15T06:14:37;10.73;;;5.15;;
72611;SDS011;60655;52.182;4.474;2023-04-15T06:16:39;14.13;;;6.40;;
72611;SDS011;60655;52.182;4.474;2023-04-15T06:18:40;11.27;;;5.97;;
72611;SDS011;60655;52.182;4.474;2023-04-15T06:20:41;14.52;;;5.80;;
72611;SDS011;60655;52.182;4.474;2023-04-15T06:22:42;11.98;;;5.50;;
72611;SDS011;60655;52.182;4.474;2023-04-15T06:24:43;10.68;;;5.80;;
72611;SDS011;60655;52.182;4.474;2023-04-15T06:26:44;11.80;;;5.75;;
72611;SDS011;60655;52.182;4.474;2023-04-15T06:28:45;13.35;;;6.78;;
72611;SDS011;60655;52.182;4.474;2023-04-15T06:30:46;13.07;;;5.43;;
72611;SDS011;60655;52.182;4.474;2023-04-15T06:32:47;11.85;;;6.03;;
72611;SDS011;60655;52.182;4.474;2023-04-15T06:34:48;12.35;;;5.88;;
72611;SDS011;60655;52.182;4.474;2023-04-15T06:36:49;13.65;;;6.57;;
72611;SDS011;60655;52.182;4.474;2023-04-15T06:38:50;12.68;;;5.22;;
72611;SDS011;60655;52.182;4.474;2023-04-15T06:40:51;14.23;;;6.43;;
72611;SDS011;60655;52.182;4.474;2023-04-15T06:42:52;15.45;;;6.35;;
72611;SDS011;60655;52.182;4.474;2023-04-15T06:44:53;10.77;;;5.18;;
72611;SDS011;60655;52.182;4.474;2023-04-15T06:46:54;11.98;;;6.20;;
72611;SDS011;60655;52.182;4.474;2023-04-15T06:48:56;11.18;;;5.82;;
72611;SDS011;60655;52.182;4.474;2023-04-15T06:50:57;11.18;;;6.15;;
72611;SDS011;60655;52.182;4.474;2023-04-15T06:52:58;11.70;;;5.32;;
72611;SDS011;60655;52.182;4.474;2023-04-15T06:54:59;11.43;;;5.60;;
72611;SDS011;60655;52.182;4.474;2023-04-15T06:57:01;11.90;;;6.30;;
72611;SDS011;60655;52.182;4.474;2023-04-15T06:59:02;10.75;;;5.60;;
72611;SDS011;60655;52.182;4.474;2023-04-15T07:01:03;13.80;;;6.82;;
72611;SDS011;60655;52.182;4.474;2023-04-15T07:03:04;13.52;;;6.70;;
72611;SDS011;60655;52.182;4.474;2023-04-15T07:05:06;11.60;;;5.43;;
72611;SDS011;60655;52.182;4.474;2023-04-15T07:07:07;11.07;;;5.82;;
72611;SDS011;60655;52.182;4.474;2023-04-15T07:09:08;12.80;;;5.88;;
72611;SDS011;60655;52.182;4.474;2023-04-15T07:11:10;11.95;;;6.00;;
72611;SDS011;60655;52.182;4.474;2023-04-15T07:13:11;9.55;;;4.60;;
72611;SDS011;60655;52.182;4.474;2023-04-15T07:15:12;12.32;;;6.00;;
72611;SDS011;60655;52.182;4.474;2023-04-15T07:17:13;10.57;;;4.72;;
72611;SDS011;60655;52.182;4.474;2023-04-15T07:19:14;11.80;;;5.75;;
72611;SDS011;60655;52.182;4.474;2023-04-15T07:21:15;10.98;;;5.57;;
72611;SDS011;60655;52.182;4.474;2023-04-15T07:23:16;11.88;;;5.22;;
72611;SDS011;60655;52.182;4.474;2023-04-15T07:25:18;9.15;;;4.05;;
72611;SDS011;60655;52.182;4.474;2023-04-15T07:27:19;12.75;;;5.55;;
72611;SDS011;60655;52.182;4.474;2023-04-15T07:29:20;10.45;;;5.22;;
72611;SDS011;60655;52.182;4.474;2023-04-15T07:31:21;11.18;;;5.50;;
72611;SDS011;60655;52.182;4.474;2023-04-15T07:33:22;9.75;;;4.72;;
72611;SDS011;60655;52.182;4.474;2023-04-15T07:35:23;9.75;;;5.07;;
72611;SDS011;60655;52.182;4.474;2023-04-15T07:37:26;13.88;;;6.55;;
72611;SDS011;60655;52.182;4.474;2023-04-15T07:39:27;11.45;;;5.97;;
72611;SDS011;60655;52.182;4.474;2023-04-15T07:41:29;11.75;;;5.40;;
72611;SDS011;60655;52.182;4.474;2023-04-15T07:43:31;10.75;;;5.55;;
72611;SDS011;60655;52.182;4.474;2023-04-15T07:45:32;11.70;;;5.93;;
72611;SDS011;60655;52.182;4.474;2023-04-15T07:47:33;10.77;;;5.10;;
72611;SDS011;60655;52.182;4.474;2023-04-15T07:49:34;11.52;;;4.88;;
72611;SDS011;60655;52.182;4.474;2023-04-15T07:51:35;16.42;;;5.97;;
72611;SDS011;60655;52.182;4.474;2023-04-15T07:53:36;11.07;;;4.88;;
72611;SDS011;60655;52.182;4.474;2023-04-15T07:55:37;11.00;;;5.90;;
72611;SDS011;60655;52.182;4.474;2023-04-15T07:57:38;15.32;;;5.82;;
72611;SDS011;60655;52.182;4.474;2023-04-15T07:59:39;10.23;;;4.85;;
72611;SDS011;60655;52.182;4.474;2023-04-15T08:01:41;11.52;;;6.10;;
72611;SDS011;60655;52.182;4.474;2023-04-15T08:03:42;9.52;;;4.43;;
72611;SDS011;60655;52.182;4.474;2023-04-15T08:05:43;11.25;;;5.30;;
72611;SDS011;60655;52.182;4.474;2023-04-15T08:07:45;10.48;;;5.35;;
72611;SDS011;60655;52.182;4.474;2023-04-15T08:09:46;12.48;;;5.38;;
72611;SDS011;60655;52.182;4.474;2023-04-15T08:11:47;11.70;;;5.60;;
72611;SDS011;60655;52.182;4.474;2023-04-15T08:13:49;9.93;;;4.90;;
72611;SDS011;60655;52.182;4.474;2023-04-15T08:18:21;11.73;;;4.93;;
72611;SDS011;60655;52.182;4.474;2023-04-15T08:20:21;9.13;;;4.22;;
72611;SDS011;60655;52.182;4.474;2023-04-15T08:22:23;8.93;;;4.47;;
72611;SDS011;60655;52.182;4.474;2023-04-15T08:24:24;9.52;;;4.53;;
72611;SDS011;60655;52.182;4.474;2023-04-15T08:26:25;9.75;;;4.10;;
72611;SDS011;60655;52.182;4.474;2023-04-15T08:28:26;13.40;;;5.40;;
72611;SDS011;60655;52.182;4.474;2023-04-15T08:30:27;9.50;;;4.57;;
72611;SDS011;60655;52.182;4.474;2023-04-15T08:32:28;9.95;;;4.32;;
72611;SDS011;60655;52.182;4.474;2023-04-15T08:34:29;13.07;;;4.32;;
72611;SDS011;60655;52.182;4.474;2023-04-15T08:36:30;10.50;;;4.28;;
72611;SDS011;60655;52.182;4.474;2023-04-15T08:38:32;8.73;;;4.47;;
72611;SDS011;60655;52.182;4.474;2023-04-15T08:40:39;11.85;;;4.70;;
72611;SDS011;60655;52.182;4.474;2023-04-15T08:42:45;10.98;;;4.28;;
72611;SDS011;60655;52.182;4.474;2023-04-15T08:44:49;9.88;;;3.95;;
72611;SDS011;60655;52.182;4.474;2023-04-15T08:46:51;9.90;;;3.58;;
72611;SDS011;60655;52.182;4.474;2023-04-15T08:48:55;9.55;;;4.50;;
72611;SDS011;60655;52.182;4.474;2023-04-15T08:50:57;11.23;;;4.80;;
72611;SDS011;60655;52.182;4.474;2023-04-15T08:52:59;9.20;;;4.97;;
72611;SDS011;60655;52.182;4.474;2023-04-15T08:55:01;11.82;;;4.75;;
72611;SDS011;60655;52.182;4.474;2023-04-15T08:57:03;10.13;;;4.72;;
72611;SDS011;60655;52.182;4.474;2023-04-15T08:59:04;9.65;;;4.28;;
72611;SDS011;60655;52.182;4.474;2023-04-15T09:01:10;10.68;;;4.63;;
72611;SDS011;60655;52.182;4.474;2023-04-15T09:03:12;9.55;;;4.63;;
72611;SDS011;60655;52.182;4.474;2023-04-15T09:05:14;9.43;;;4.53;;
72611;SDS011;60655;52.182;4.474;2023-04-15T09:07:16;11.20;;;4.72;;
72611;SDS011;60655;52.182;4.474;2023-04-15T09:09:17;10.18;;;4.28;;
72611;SDS011;60655;52.182;4.474;2023-04-15T09:11:18;9.13;;;4.45;;
72611;SDS011;60655;52.182;4.474;2023-04-15T09:13:21;10.15;;;4.57;;
72611;SDS011;60655;52.182;4.474;2023-04-15T09:15:25;9.73;;;4.25;;
72611;SDS011;60655;52.182;4.474;2023-04-15T09:17:29;12.00;;;4.80;;
72611;SDS011;60655;52.182;4.474;2023-04-15T09:19:33;9.90;;;4.32;;
72611;SDS011;60655;52.182;4.474;2023-04-15T09:21:34;10.88;;;4.03;;
72611;SDS011;60655;52.182;4.474;2023-04-15T09:23:35;10.15;;;4.55;;
72611;SDS011;60655;52.182;4.474;2023-04-15T09:25:37;8.40;;;3.40;;
72611;SDS011;60655;52.182;4.474;2023-04-15T09:27:48;8.85;;;3.17;;
72611;SDS011;60655;52.182;4.474;2023-04-15T09:29:50;6.80;;;3.28;;
72611;SDS011;60655;52.182;4.474;2023-04-15T09:31:53;12.75;;;3.45;;
72611;SDS011;60655;52.182;4.474;2023-04-15T09:33:54;8.85;;;3.10;;
72611;SDS011;60655;52.182;4.474;2023-04-15T09:35:57;9.98;;;3.60;;
72611;SDS011;60655;52.182;4.474;2023-04-15T09:38:04;6.40;;;2.80;;
72611;SDS011;60655;52.182;4.474;2023-04-15T09:40:07;6.05;;;2.13;;
72611;SDS011;60655;52.182;4.474;2023-04-15T09:42:09;6.35;;;1.95;;
72611;SDS011;60655;52.182;4.474;2023-04-15T09:44:23;6.80;;;1.90;;
72611;SDS011;60655;52.182;4.474;2023-04-15T09:46:39;5.00;;;2.20;;
72611;SDS011;60655;52.182;4.474;2023-04-15T09:48:43;5.38;;;1.95;;
72611;SDS011;60655;52.182;4.474;2023-04-15T09:50:45;4.47;;;1.90;;
72611;SDS011;60655;52.182;4.474;2023-04-15T09:52:46;5.65;;;2.05;;
72611;SDS011;60655;52.182;4.474;2023-04-15T09:54:47;6.15;;;2.17;;
72611;SDS011;60655;52.182;4.474;2023-04-15T09:56:49;6.28;;;2.20;;
72611;SDS011;60655;52.182;4.474;2023-04-15T09:58:55;5.80;;;2.20;;
72611;SDS011;60655;52.182;4.474;2023-04-15T10:00:56;8.35;;;2.50;;
72611;SDS011;60655;52.182;4.474;2023-04-15T10:02:58;6.60;;;2.50;;
72611;SDS011;60655;52.182;4.474;2023-04-15T10:05:02;7.13;;;2.40;;
72611;SDS011;60655;52.182;4.474;2023-04-15T10:07:04;6.68;;;2.42;;
72611;SDS011;60655;52.182;4.474;2023-04-15T10:09:05;9.13;;;2.92;;
72611;SDS011;60655;52.182;4.474;2023-04-15T10:11:08;6.45;;;2.40;;
72611;SDS011;60655;52.182;4.474;2023-04-15T10:13:09;10.45;;;2.75;;
72611;SDS011;60655;52.182;4.474;2023-04-15T10:15:13;6.07;;;2.58;;
72611;SDS011;60655;52.182;4.474;2023-04-15T10:17:17;7.30;;;1.85;;
72611;SDS011;60655;52.182;4.474;2023-04-15T10:19:21;7.05;;;2.20;;
72611;SDS011;60655;52.182;4.474;2023-04-15T10:21:27;9.93;;;1.95;;
72611;SDS011;60655;52.182;4.474;2023-04-15T10:23:30;6.68;;;2.00;;
72611;SDS011;60655;52.182;4.474;2023-04-15T10:25:32;5.45;;;1.90;;
72611;SDS011;60655;52.182;4.474;2023-04-15T10:27:33;6.00;;;1.92;;
72611;SDS011;60655;52.182;4.474;2023-04-15T10:29:35;6.20;;;2.25;;
72611;SDS011;60655;52.182;4.474;2023-04-15T10:31:37;5.95;;;2.55;;
72611;SDS011;60655;52.182;4.474;2023-04-15T10:33:39;8.38;;;2.50;;
72611;SDS011;60655;52.182;4.474;2023-04-15T10:35:41;8.27;;;2.40;;
72611;SDS011;60655;52.182;4.474;2023-04-15T10:37:43;8.68;;;2.95;;
72611;SDS011;60655;52.182;4.474;2023-04-15T10:39:44;7.32;;;3.20;;
72611;SDS011;60655;52.182;4.474;2023-04-15T10:41:45;6.53;;;2.45;;
72611;SDS011;60655;52.182;4.474;2023-04-15T10:44:09;6.57;;;2.20;;
72611;SDS011;60655;52.182;4.474;2023-04-15T10:46:10;5.72;;;2.10;;
72611;SDS011;60655;52.182;4.474;2023-04-15T10:48:11;4.47;;;1.98;;
72611;SDS011;60655;52.182;4.474;2023-04-15T10:50:16;5.25;;;1.80;;
72611;SDS011;60655;52.182;4.474;2023-04-15T10:52:23;7.28;;;2.40;;
72611;SDS011;60655;52.182;4.474;2023-04-15T10:56:29;5.97;;;2.35;;
72611;SDS011;60655;52.182;4.474;2023-04-15T10:58:39;6.47;;;2.03;;
72611;SDS011;60655;52.182;4.474;2023-04-15T11:00:43;5.78;;;1.70;;
72611;SDS011;60655;52.182;4.474;2023-04-15T11:04:56;7.18;;;2.03;;
72611;SDS011;60655;52.182;4.474;2023-04-15T11:07:04;5.18;;;2.05;;
72611;SDS011;60655;52.182;4.474;2023-04-15T11:09:06;7.60;;;2.42;;
72611;SDS011;60655;52.182;4.474;2023-04-15T11:11:09;6.13;;;2.70;;
72611;SDS011;60655;52.182;4.474;2023-04-15T11:15:30;6.75;;;1.88;;
72611;SDS011;60655;52.182;4.474;2023-04-15T11:17:33;6.57;;;2.10;;
72611;SDS011;60655;52.182;4.474;2023-04-15T11:19:35;4.07;;;1.88;;
72611;SDS011;60655;52.182;4.474;2023-04-15T11:21:37;3.80;;;1.70;;
72611;SDS011;60655;52.182;4.474;2023-04-15T11:23:39;6.75;;;2.33;;
72611;SDS011;60655;52.182;4.474;2023-04-15T11:25:46;5.43;;;1.80;;
72611;SDS011;60655;52.182;4.474;2023-04-15T11:27:48;6.50;;;2.08;;
72611;SDS011;60655;52.182;4.474;2023-04-15T11:29:49;6.22;;;2.90;;
72611;SDS011;60655;52.182;4.474;2023-04-15T11:31:50;7.88;;;2.45;;
72611;SDS011;60655;52.182;4.474;2023-04-15T11:33:55;9.85;;;2.63;;
72611;SDS011;60655;52.182;4.474;2023-04-15T11:36:00;7.75;;;3.25;;
72611;SDS011;60655;52.182;4.474;2023-04-15T11:38:02;12.40;;;3.90;;
72611;SDS011;60655;52.182;4.474;2023-04-15T11:40:08;7.93;;;3.25;;
72611;SDS011;60655;52.182;4.474;2023-04-15T11:42:16;10.75;;;3.10;;
72611;SDS011;60655;52.182;4.474;2023-04-15T11:44:18;10.30;;;2.72;;
72611;SDS011;60655;52.182;4.474;2023-04-15T11:46:19;7.05;;;2.67;;
72611;SDS011;60655;52.182;4.474;2023-04-15T11:48:23;6.63;;;2.53;;
72611;SDS011;60655;52.182;4.474;2023-04-15T11:50:28;8.48;;;3.03;;
72611;SDS011;60655;52.182;4.474;2023-04-15T11:52:29;6.43;;;2.50;;
72611;SDS011;60655;52.182;4.474;2023-04-15T11:54:30;6.47;;;2.50;;
72611;SDS011;60655;52.182;4.474;2023-04-15T11:56:31;7.18;;;2.72;;
72611;SDS011;60655;52.182;4.474;2023-04-15T11:58:33;7.30;;;2.30;;
72611;SDS011;60655;52.182;4.474;2023-04-15T12:00:36;9.10;;;2.70;;
72611;SDS011;60655;52.182;4.474;2023-04-15T12:02:39;7.20;;;2.83;;
72611;SDS011;60655;52.182;4.474;2023-04-15T12:04:40;9.32;;;2.70;;
72611;SDS011;60655;52.182;4.474;2023-04-15T12:06:41;8.70;;;2.45;;
72611;SDS011;60655;52.182;4.474;2023-04-15T12:10:58;7.53;;;2.38;;
72611;SDS011;60655;52.182;4.474;2023-04-15T12:12:59;6.68;;;2.30;;
72611;SDS011;60655;52.182;4.474;2023-04-15T12:15:01;6.85;;;2.28;;
72611;SDS011;60655;52.182;4.474;2023-04-15T12:17:02;7.45;;;2.70;;
72611;SDS011;60655;52.182;4.474;2023-04-15T12:19:06;11.23;;;3.10;;
72611;SDS011;60655;52.182;4.474;2023-04-15T12:21:09;8.35;;;2.92;;
72611;SDS011;60655;52.182;4.474;2023-04-15T12:23:10;9.05;;;3.28;;